sensor_id;sensor_type;location;lat;lon;timestamp;pressure;altitude;pressure_sealevel;temperature;humidity
18509;BME280;9383;50.928;12.116;2022-08-19T00:01:50;98248.09;;;19.28;100.00
18509;BME280;9383;50.928;12.116;2022-08-19T00:04:21;98296.34;;;19.62;100.00
18509;BME280;9383;50.928;12.116;2022-08-19T00:06:49;98204.56;;;19.02;100.00
18509;BME280;9383;50.928;12.116;2022-08-19T00:09:19;98250.91;;;19.26;100.00
18509;BME280;9383;50.928;12.116;2022-08-19T00:11:46;98251.88;;;19.25;100.00
18509;BME280;9383;50.928;12.116;2022-08-19T00:14:15;98260.41;;;19.31;100.00
18509;BME280;9383;50.928;12.116;2022-08-19T00:16:45;98311.88;;;19.59;100.00
18509;BME280;9383;50.928;12.116;2022-08-19T00:19:14;98274.31;;;19.47;100.00
18509;BME280;9383;50.928;12.116;2022-08-19T00:21:41;98291.22;;;19.59;100.00
18509;BME280;9383;50.928;12.116;2022-08-19T00:24:10;98282.31;;;19.59;100.00
18509;BME280;9383;50.928;12.116;2022-08-19T00:26:38;98203.81;;;19.11;100.00
18509;BME280;9383;50.928;12.116;2022-08-19T00:29:06;98258.91;;;19.49;100.00
18509;BME280;9383;50.928;12.116;2022-08-19T00:31:33;98249.13;;;19.48;100.00
18509;BME280;9383;50.928;12.116;2022-08-19T00:33:59;98203.88;;;19.21;100.00
18509;BME280;9383;50.928;12.116;2022-08-19T00:36:27;98243.88;;;19.47;100.00
18509;BME280;9383;50.928;12.116;2022-08-19T00:38:55;98232.50;;;19.43;100.00
18509;BME280;9383;50.928;12.116;2022-08-19T00:41:23;98227.50;;;19.38;100.00
18509;BME280;9383;50.928;12.116;2022-08-19T00:44:20;98216.03;;;19.36;100.00
18509;BME280;9383;50.928;12.116;2022-08-19T00:46:50;98191.56;;;19.18;100.00
18509;BME280;9383;50.928;12.116;2022-08-19T00:49:26;98170.63;;;19.01;100.00
18509;BME280;9383;50.928;12.116;2022-08-19T00:52:15;98178.50;;;19.14;100.00
18509;BME280;9383;50.928;12.116;2022-08-19T00:54:44;98199.31;;;19.33;100.00
18509;BME280;9383;50.928;12.116;2022-08-19T00:57:17;98148.50;;;18.97;100.00
18509;BME280;9383;50.928;12.116;2022-08-19T00:59:47;98202.88;;;19.33;100.00
18509;BME280;9383;50.928;12.116;2022-08-19T01:02:17;98160.34;;;19.06;100.00
18509;BME280;9383;50.928;12.116;2022-08-19T01:04:43;98144.38;;;18.93;100.00
18509;BME280;9383;50.928;12.116;2022-08-19T01:07:09;98199.72;;;19.28;100.00
18509;BME280;9383;50.928;12.116;2022-08-19T01:09:35;98164.94;;;19.15;100.00
18509;BME280;9383;50.928;12.116;2022-08-19T01:12:02;98139.38;;;19.00;100.00
18509;BME280;9383;50.928;12.116;2022-08-19T01:14:30;98194.28;;;19.39;100.00
18509;BME280;9383;50.928;12.116;2022-08-19T01:16:57;98111.41;;;18.91;100.00
18509;BME280;9383;50.928;12.116;2022-08-19T01:19:34;98181.97;;;19.37;100.00
18509;BME280;9383;50.928;12.116;2022-08-19T01:22:06;98174.16;;;19.34;100.00
18509;BME280;9383;50.928;12.116;2022-08-19T01:24:34;98151.75;;;19.23;100.00
18509;BME280;9383;50.928;12.116;2022-08-19T01:27:05;98160.13;;;19.30;100.00
18509;BME280;9383;50.928;12.116;2022-08-19T01:29:31;98118.72;;;19.00;100.00
18509;BME280;9383;50.928;12.116;2022-08-19T01:31:58;98164.66;;;19.30;100.00
18509;BME280;9383;50.928;12.116;2022-08-19T01:34:25;98093.00;;;18.86;100.00
18509;BME280;9383;50.928;12.116;2022-08-19T01:36:51;98108.59;;;18.92;100.00
18509;BME280;9383;50.928;12.116;2022-08-19T01:39:23;98127.38;;;19.04;100.00
18509;BME280;9383;50.928;12.116;2022-08-19T01:41:50;98167.22;;;19.31;100.00
18509;BME280;9383;50.928;12.116;2022-08-19T01:44:20;98160.38;;;19.27;100.00
18509;BME280;9383;50.928;12.116;2022-08-19T01:46:51;98162.81;;;19.30;100.00
18509;BME280;9383;50.928;12.116;2022-08-19T01:49:21;98166.63;;;19.28;100.00
18509;BME280;9383;50.928;12.116;2022-08-19T01:51:49;98164.91;;;19.26;100.00
18509;BME280;9383;50.928;12.116;2022-08-19T01:54:18;98158.81;;;19.24;100.00
18509;BME280;9383;50.928;12.116;2022-08-19T01:56:44;98161.50;;;19.24;100.00
18509;BME280;9383;50.928;12.116;2022-08-19T01:59:15;98162.59;;;19.22;100.00
18509;BME280;9383;50.928;12.116;2022-08-19T02:01:42;98095.56;;;18.76;100.00
18509;BME280;9383;50.928;12.116;2022-08-19T02:04:08;98153.75;;;19.10;100.00
18509;BME280;9383;50.928;12.116;2022-08-19T02:06:35;98158.13;;;19.11;100.00
18509;BME280;9383;50.928;12.116;2022-08-19T02:09:03;98149.13;;;19.01;100.00
18509;BME280;9383;50.928;12.116;2022-08-19T02:11:35;98176.41;;;19.17;100.00
18509;BME280;9383;50.928;12.116;2022-08-19T02:14:06;98107.28;;;18.75;100.00
18509;BME280;9383;50.928;12.116;2022-08-19T02:16:34;98161.78;;;19.21;100.00
18509;BME280;9383;50.928;12.116;2022-08-19T02:19:00;98149.44;;;19.19;100.00
18509;BME280;9383;50.928;12.116;2022-08-19T02:21:27;98144.44;;;19.14;100.00
18509;BME280;9383;50.928;12.116;2022-08-19T02:23:54;98103.22;;;18.92;100.00
18509;BME280;9383;50.928;12.116;2022-08-19T02:26:21;98018.97;;;18.39;100.00
18509;BME280;9383;50.928;12.116;2022-08-19T02:28:48;98061.91;;;18.72;100.00
18509;BME280;9383;50.928;12.116;2022-08-19T02:31:19;98130.63;;;19.19;100.00
18509;BME280;9383;50.928;12.116;2022-08-19T02:33:47;98084.78;;;18.88;100.00
18509;BME280;9383;50.928;12.116;2022-08-19T02:36:16;98145.88;;;19.18;100.00
18509;BME280;9383;50.928;12.116;2022-08-19T02:38:43;98137.00;;;19.18;100.00
18509;BME280;9383;50.928;12.116;2022-08-19T02:41:18;98145.03;;;19.18;100.00
18509;BME280;9383;50.928;12.116;2022-08-19T02:43:44;98102.41;;;18.80;100.00
18509;BME280;9383;50.928;12.116;2022-08-19T02:46:22;98156.88;;;19.15;100.00
18509;BME280;9383;50.928;12.116;2022-08-19T02:48:54;98169.06;;;19.19;100.00
18509;BME280;9383;50.928;12.116;2022-08-19T02:51:28;98143.38;;;18.94;100.00
18509;BME280;9383;50.928;12.116;2022-08-19T02:53:55;98192.88;;;19.24;100.00
18509;BME280;9383;50.928;12.116;2022-08-19T02:56:22;98201.66;;;19.26;100.00
18509;BME280;9383;50.928;12.116;2022-08-19T02:58:50;98215.84;;;19.28;100.00
18509;BME280;9383;50.928;12.116;2022-08-19T03:01:27;98227.16;;;19.32;100.00
18509;BME280;9383;50.928;12.116;2022-08-19T03:03:56;98234.25;;;19.33;100.00
18509;BME280;9383;50.928;12.116;2022-08-19T03:06:23;98235.00;;;19.35;100.00
18509;BME280;9383;50.928;12.116;2022-08-19T03:08:49;98223.50;;;19.33;100.00
18509;BME280;9383;50.928;12.116;2022-08-19T03:11:19;98246.31;;;19.38;100.00
18509;BME280;9383;50.928;12.116;2022-08-19T03:13:46;98212.59;;;19.13;100.00
18509;BME280;9383;50.928;12.116;2022-08-19T03:16:12;98203.09;;;19.09;100.00
18509;BME280;9383;50.928;12.116;2022-08-19T03:18:38;98202.94;;;19.10;100.00
18509;BME280;9383;50.928;12.116;2022-08-19T03:21:05;98261.34;;;19.41;100.00
18509;BME280;9383;50.928;12.116;2022-08-19T03:23:32;98238.06;;;19.30;100.00
18509;BME280;9383;50.928;12.116;2022-08-19T03:26:03;98224.88;;;19.27;100.00
18509;BME280;9383;50.928;12.116;2022-08-19T03:28:31;98215.00;;;19.16;100.00
18509;BME280;9383;50.928;12.116;2022-08-19T03:31:02;98253.91;;;19.45;100.00
18509;BME280;9383;50.928;12.116;2022-08-19T03:33:30;98216.72;;;19.17;100.00
18509;BME280;9383;50.928;12.116;2022-08-19T03:36:14;98242.19;;;19.34;100.00
18509;BME280;9383;50.928;12.116;2022-08-19T03:38:49;98212.06;;;19.19;100.00
18509;BME280;9383;50.928;12.116;2022-08-19T03:41:20;98247.94;;;19.30;100.00
18509;BME280;9383;50.928;12.116;2022-08-19T03:43:48;98275.03;;;19.49;100.00
18509;BME280;9383;50.928;12.116;2022-08-19T03:46:18;98269.16;;;19.44;100.00
18509;BME280;9383;50.928;12.116;2022-08-19T03:48:51;98222.97;;;19.18;100.00
18509;BME280;9383;50.928;12.116;2022-08-19T03:51:35;98229.84;;;19.32;100.00
18509;BME280;9383;50.928;12.116;2022-08-19T03:54:06;98261.44;;;19.51;100.00
18509;BME280;9383;50.928;12.116;2022-08-19T03:56:35;98257.03;;;19.50;100.00
18509;BME280;9383;50.928;12.116;2022-08-19T03:59:07;98259.72;;;19.50;100.00
18509;BME280;9383;50.928;12.116;2022-08-19T04:01:34;98239.84;;;19.41;100.00
18509;BME280;9383;50.928;12.116;2022-08-19T04:04:01;98196.59;;;19.11;100.00
18509;BME280;9383;50.928;12.116;2022-08-19T04:06:34;98164.00;;;18.93;100.00
18509;BME280;9383;50.928;12.116;2022-08-19T04:09:04;98264.50;;;19.46;100.00
18509;BME280;9383;50.928;12.116;2022-08-19T04:11:38;98273.91;;;19.52;100.00
18509;BME280;9383;50.928;12.116;2022-08-19T04:14:14;98274.75;;;19.52;100.00
18509;BME280;9383;50.928;12.116;2022-08-19T04:16:41;98237.34;;;19.28;100.00
18509;BME280;9383;50.928;12.116;2022-08-19T04:19:09;98269.38;;;19.52;100.00
18509;BME280;9383;50.928;12.116;2022-08-19T04:21:36;98219.91;;;19.22;100.00
18509;BME280;9383;50.928;12.116;2022-08-19T04:24:18;98242.53;;;19.41;100.00
18509;BME280;9383;50.928;12.116;2022-08-19T04:26:45;98252.53;;;19.50;100.00
18509;BME280;9383;50.928;12.116;2022-08-19T04:29:19;98205.47;;;19.23;100.00
18509;BME280;9383;50.928;12.116;2022-08-19T04:31:48;98243.50;;;19.51;100.00
18509;BME280;9383;50.928;12.116;2022-08-19T04:34:18;98234.38;;;19.43;100.00
18509;BME280;9383;50.928;12.116;2022-08-19T04:36:48;98230.94;;;19.40;100.00
18509;BME280;9383;50.928;12.116;2022-08-19T04:39:21;98207.44;;;19.21;100.00
18509;BME280;9383;50.928;12.116;2022-08-19T04:41:49;98153.53;;;18.90;100.00
18509;BME280;9383;50.928;12.116;2022-08-19T04:44:35;98254.50;;;19.48;100.00
18509;BME280;9383;50.928;12.116;2022-08-19T04:47:03;98254.34;;;19.50;100.00
18509;BME280;9383;50.928;12.116;2022-08-19T04:49:31;98194.75;;;19.12;100.00
18509;BME280;9383;50.928;12.116;2022-08-19T04:51:57;98199.88;;;19.15;100.00
18509;BME280;9383;50.928;12.116;2022-08-19T04:54:24;98203.03;;;19.20;100.00
18509;BME280;9383;50.928;12.116;2022-08-19T04:56:54;98218.53;;;19.28;100.00
18509;BME280;9383;50.928;12.116;2022-08-19T04:59:21;98245.34;;;19.39;100.00
18509;BME280;9383;50.928;12.116;2022-08-19T05:01:48;98253.28;;;19.41;100.00
18509;BME280;9383;50.928;12.116;2022-08-19T05:04:18;98271.34;;;19.50;100.00
18509;BME280;9383;50.928;12.116;2022-08-19T05:06:48;98182.56;;;18.96;100.00
18509;BME280;9383;50.928;12.116;2022-08-19T05:09:15;98211.97;;;19.09;100.00
18509;BME280;9383;50.928;12.116;2022-08-19T05:11:42;98270.47;;;19.50;100.00
18509;BME280;9383;50.928;12.116;2022-08-19T05:14:11;98241.47;;;19.32;100.00
18509;BME280;9383;50.928;12.116;2022-08-19T05:16:39;98217.44;;;19.19;100.00
18509;BME280;9383;50.928;12.116;2022-08-19T05:19:06;98224.28;;;19.23;100.00
18509;BME280;9383;50.928;12.116;2022-08-19T05:21:51;98203.16;;;19.19;100.00
18509;BME280;9383;50.928;12.116;2022-08-19T05:24:36;98201.59;;;19.16;100.00
18509;BME280;9383;50.928;12.116;2022-08-19T05:27:03;98246.44;;;19.48;100.00
18509;BME280;9383;50.928;12.116;2022-08-19T05:29:33;98253.75;;;19.46;100.00
18509;BME280;9383;50.928;12.116;2022-08-19T05:32:03;98241.19;;;19.47;100.00
18509;BME280;9383;50.928;12.116;2022-08-19T05:34:31;98238.25;;;19.38;100.00
18509;BME280;9383;50.928;12.116;2022-08-19T05:37:01;98184.28;;;19.09;100.00
18509;BME280;9383;50.928;12.116;2022-08-19T05:39:29;98260.72;;;19.49;100.00
18509;BME280;9383;50.928;12.116;2022-08-19T05:42:09;98239.41;;;19.36;100.00
18509;BME280;9383;50.928;12.116;2022-08-19T05:44:41;98266.81;;;19.51;100.00
18509;BME280;9383;50.928;12.116;2022-08-19T05:47:13;98257.03;;;19.50;100.00
18509;BME280;9383;50.928;12.116;2022-08-19T05:49:41;98264.88;;;19.53;100.00
18509;BME280;9383;50.928;12.116;2022-08-19T05:52:11;98252.53;;;19.50;100.00
18509;BME280;9383;50.928;12.116;2022-08-19T05:54:40;98266.09;;;19.49;100.00
18509;BME280;9383;50.928;12.116;2022-08-19T05:57:08;98283.94;;;19.50;100.00
18509;BME280;9383;50.928;12.116;2022-08-19T05:59:35;98178.66;;;18.89;100.00
18509;BME280;9383;50.928;12.116;2022-08-19T06:02:03;98249.66;;;19.31;100.00
18509;BME280;9383;50.928;12.116;2022-08-19T06:04:30;98277.94;;;19.46;100.00
18509;BME280;9383;50.928;12.116;2022-08-19T06:06:56;98279.91;;;19.44;100.00
18509;BME280;9383;50.928;12.116;2022-08-19T06:09:24;98304.69;;;19.59;100.00
18509;BME280;9383;50.928;12.116;2022-08-19T06:11:58;98305.31;;;19.51;100.00
18509;BME280;9383;50.928;12.116;2022-08-19T06:14:32;98336.81;;;19.61;100.00
18509;BME280;9383;50.928;12.116;2022-08-19T06:17:00;98259.25;;;19.12;100.00
18509;BME280;9383;50.928;12.116;2022-08-19T06:19:29;98261.56;;;19.17;100.00
18509;BME280;9383;50.928;12.116;2022-08-19T06:21:57;98342.66;;;19.66;100.00
18509;BME280;9383;50.928;12.116;2022-08-19T06:24:26;98333.38;;;19.59;100.00
18509;BME280;9383;50.928;12.116;2022-08-19T06:26:55;98337.19;;;19.56;100.00
18509;BME280;9383;50.928;12.116;2022-08-19T06:29:25;98359.41;;;19.70;100.00
18509;BME280;9383;50.928;12.116;2022-08-19T06:31:54;98334.63;;;19.54;100.00
18509;BME280;9383;50.928;12.116;2022-08-19T06:34:22;98266.31;;;19.13;100.00
18509;BME280;9383;50.928;12.116;2022-08-19T06:36:54;98280.22;;;19.18;100.00
18509;BME280;9383;50.928;12.116;2022-08-19T06:39:25;98385.66;;;19.77;100.00
18509;BME280;9383;50.928;12.116;2022-08-19T06:41:57;98373.69;;;19.70;100.00
18509;BME280;9383;50.928;12.116;2022-08-19T06:44:28;98384.94;;;19.75;100.00
18509;BME280;9383;50.928;12.116;2022-08-19T06:46:55;98362.72;;;19.62;100.00
18509;BME280;9383;50.928;12.116;2022-08-19T06:49:23;98394.44;;;19.79;100.00
18509;BME280;9383;50.928;12.116;2022-08-19T06:51:50;98354.94;;;19.47;100.00
18509;BME280;9383;50.928;12.116;2022-08-19T06:54:17;98401.53;;;19.80;100.00
18509;BME280;9383;50.928;12.116;2022-08-19T06:56:44;98316.38;;;19.25;100.00
18509;BME280;9383;50.928;12.116;2022-08-19T06:59:15;98342.72;;;19.43;100.00
18509;BME280;9383;50.928;12.116;2022-08-19T07:01:48;98320.75;;;19.26;100.00
18509;BME280;9383;50.928;12.116;2022-08-19T07:04:19;98324.91;;;19.31;100.00
18509;BME280;9383;50.928;12.116;2022-08-19T07:06:47;98395.69;;;19.75;100.00
18509;BME280;9383;50.928;12.116;2022-08-19T07:09:17;98371.78;;;19.61;100.00
18509;BME280;9383;50.928;12.116;2022-08-19T07:11:50;98399.22;;;19.76;100.00
18509;BME280;9383;50.928;12.116;2022-08-19T07:14:20;98396.53;;;19.76;100.00
18509;BME280;9383;50.928;12.116;2022-08-19T07:16:49;98386.91;;;19.73;100.00
18509;BME280;9383;50.928;12.116;2022-08-19T07:19:17;98338.84;;;19.36;100.00
18509;BME280;9383;50.928;12.116;2022-08-19T07:21:47;98394.47;;;19.68;100.00
18509;BME280;9383;50.928;12.116;2022-08-19T07:24:15;98359.56;;;19.45;100.00
18509;BME280;9383;50.928;12.116;2022-08-19T07:26:43;98344.22;;;19.36;100.00
18509;BME280;9383;50.928;12.116;2022-08-19T07:29:11;98323.19;;;19.18;100.00
18509;BME280;9383;50.928;12.116;2022-08-19T07:31:38;98401.94;;;19.64;100.00
18509;BME280;9383;50.928;12.116;2022-08-19T07:34:10;98397.78;;;19.60;100.00
18509;BME280;9383;50.928;12.116;2022-08-19T07:36:41;98410.41;;;19.60;100.00
18509;BME280;9383;50.928;12.116;2022-08-19T07:39:17;98407.72;;;19.60;100.00
18509;BME280;9383;50.928;12.116;2022-08-19T07:41:46;98354.59;;;19.29;100.00
18509;BME280;9383;50.928;12.116;2022-08-19T07:44:14;98409.44;;;19.49;100.00
18509;BME280;9383;50.928;12.116;2022-08-19T07:46:45;98328.94;;;19.02;100.00
18509;BME280;9383;50.928;12.116;2022-08-19T07:49:13;98405.84;;;19.60;100.00
18509;BME280;9383;50.928;12.116;2022-08-19T07:51:52;98419.41;;;19.59;100.00
18509;BME280;9383;50.928;12.116;2022-08-19T07:54:22;98423.22;;;19.56;100.00
18509;BME280;9383;50.928;12.116;2022-08-19T07:56:49;98413.81;;;19.50;100.00
18509;BME280;9383;50.928;12.116;2022-08-19T07:59:18;98437.41;;;19.58;100.00
18509;BME280;9383;50.928;12.116;2022-08-19T08:01:45;98428.84;;;19.53;100.00
18509;BME280;9383;50.928;12.116;2022-08-19T08:04:11;98358.88;;;19.09;100.00
18509;BME280;9383;50.928;12.116;2022-08-19T08:06:56;98403.44;;;19.34;100.00
18509;BME280;9383;50.928;12.116;2022-08-19T08:09:44;98434.81;;;19.57;100.00
18509;BME280;9383;50.928;12.116;2022-08-19T08:12:22;98443.50;;;19.60;100.00
18509;BME280;9383;50.928;12.116;2022-08-19T08:14:55;98390.16;;;19.21;100.00
18509;BME280;9383;50.928;12.116;2022-08-19T08:17:25;98451.81;;;19.57;100.00
18509;BME280;9383;50.928;12.116;2022-08-19T08:19:52;98449.00;;;19.59;100.00
18509;BME280;9383;50.928;12.116;2022-08-19T08:22:22;98451.56;;;19.60;100.00
18509;BME280;9383;50.928;12.116;2022-08-19T08:25:17;98433.13;;;19.44;100.00
18509;BME280;9383;50.928;12.116;2022-08-19T08:27:46;98422.50;;;19.43;100.00
18509;BME280;9383;50.928;12.116;2022-08-19T08:30:18;98440.81;;;19.60;100.00
18509;BME280;9383;50.928;12.116;2022-08-19T08:32:45;98444.59;;;19.58;100.00
18509;BME280;9383;50.928;12.116;2022-08-19T08:35:15;98382.09;;;19.10;100.00
18509;BME280;9383;50.928;12.116;2022-08-19T08:37:44;98419.56;;;19.34;100.00
18509;BME280;9383;50.928;12.116;2022-08-19T08:41:06;98459.63;;;19.60;100.00
18509;BME280;9383;50.928;12.116;2022-08-19T08:43:29;98421.28;;;19.35;100.00
18509;BME280;9383;50.928;12.116;2022-08-19T08:46:13;98418.47;;;19.37;100.00
18509;BME280;9383;50.928;12.116;2022-08-19T08:49:03;98464.66;;;19.65;100.00
18509;BME280;9383;50.928;12.116;2022-08-19T08:51:40;98427.63;;;19.46;100.00
18509;BME280;9383;50.928;12.116;2022-08-19T08:54:12;98447.44;;;19.56;100.00
18509;BME280;9383;50.928;12.116;2022-08-19T08:56:42;98384.00;;;19.08;100.00
18509;BME280;9383;50.928;12.116;2022-08-19T08:59:43;98388.66;;;19.06;100.00
18509;BME280;9383;50.928;12.116;2022-08-19T09:02:11;98429.22;;;19.25;100.00
18509;BME280;9383;50.928;12.116;2022-08-19T09:04:38;98475.50;;;19.52;100.00
18509;BME280;9383;50.928;12.116;2022-08-19T09:09:52;98387.41;;;18.98;100.00
18509;BME280;9383;50.928;12.116;2022-08-19T09:15:40;98459.00;;;19.45;100.00
18509;BME280;9383;50.928;12.116;2022-08-19T09:18:08;98453.88;;;19.42;100.00
18509;BME280;9383;50.928;12.116;2022-08-19T09:20:34;98450.94;;;19.34;100.00
18509;BME280;9383;50.928;12.116;2022-08-19T09:23:00;98422.50;;;19.20;100.00
18509;BME280;9383;50.928;12.116;2022-08-19T09:25:27;98387.06;;;18.92;100.00
18509;BME280;9383;50.928;12.116;2022-08-19T09:27:54;98418.22;;;19.17;100.00
18509;BME280;9383;50.928;12.116;2022-08-19T09:30:29;98379.34;;;18.87;100.00
18509;BME280;9383;50.928;12.116;2022-08-19T09:32:55;98412.34;;;19.01;100.00
18509;BME280;9383;50.928;12.116;2022-08-19T09:35:25;98384.97;;;18.84;100.00
18509;BME280;9383;50.928;12.116;2022-08-19T09:37:53;98460.88;;;19.33;100.00
18509;BME280;9383;50.928;12.116;2022-08-19T09:40:19;98370.31;;;18.77;100.00
18509;BME280;9383;50.928;12.116;2022-08-19T09:42:47;98462.81;;;19.31;100.00
18509;BME280;9383;50.928;12.116;2022-08-19T09:45:15;98474.66;;;19.29;100.00
18509;BME280;9383;50.928;12.116;2022-08-19T09:47:43;98459.03;;;19.22;100.00
18509;BME280;9383;50.928;12.116;2022-08-19T09:50:12;98441.41;;;19.07;100.00
18509;BME280;9383;50.928;12.116;2022-08-19T09:52:39;98473.31;;;19.23;100.00
18509;BME280;9383;50.928;12.116;2022-08-19T09:55:08;98468.28;;;19.18;100.00
18509;BME280;9383;50.928;12.116;2022-08-19T09:57:35;98469.88;;;19.09;100.00
18509;BME280;9383;50.928;12.116;2022-08-19T10:00:05;98483.31;;;19.09;100.00
18509;BME280;9383;50.928;12.116;2022-08-19T10:02:33;98473.78;;;19.05;100.00
18509;BME280;9383;50.928;12.116;2022-08-19T10:05:00;98474.00;;;19.02;100.00
18509;BME280;9383;50.928;12.116;2022-08-19T10:07:45;98445.75;;;18.85;100.00
18509;BME280;9383;50.928;12.116;2022-08-19T10:10:12;98407.13;;;18.63;100.00
18509;BME280;9383;50.928;12.116;2022-08-19T10:12:38;98479.78;;;19.09;100.00
18509;BME280;9383;50.928;12.116;2022-08-19T10:15:06;98395.50;;;18.51;100.00
18509;BME280;9383;50.928;12.116;2022-08-19T10:17:33;98401.50;;;18.55;100.00
18509;BME280;9383;50.928;12.116;2022-08-19T10:20:01;98447.22;;;18.89;100.00
18509;BME280;9383;50.928;12.116;2022-08-19T10:22:30;98412.16;;;18.68;100.00
18509;BME280;9383;50.928;12.116;2022-08-19T10:24:56;98421.03;;;18.68;100.00
18509;BME280;9383;50.928;12.116;2022-08-19T10:27:22;98451.25;;;18.95;100.00
18509;BME280;9383;50.928;12.116;2022-08-19T10:29:48;98446.25;;;18.90;100.00
18509;BME280;9383;50.928;12.116;2022-08-19T10:32:15;98445.03;;;18.94;100.00
18509;BME280;9383;50.928;12.116;2022-08-19T10:34:41;98483.22;;;19.22;100.00
18509;BME280;9383;50.928;12.116;2022-08-19T10:37:08;98492.75;;;19.26;100.00
18509;BME280;9383;50.928;12.116;2022-08-19T10:39:36;98486.38;;;19.16;100.00
18509;BME280;9383;50.928;12.116;2022-08-19T10:42:07;98426.19;;;18.83;100.00
18509;BME280;9383;50.928;12.116;2022-08-19T10:44:36;98501.19;;;19.33;100.00
18509;BME280;9383;50.928;12.116;2022-08-19T10:47:03;98482.25;;;19.35;100.00
18509;BME280;9383;50.928;12.116;2022-08-19T10:49:30;98415.63;;;18.93;100.00
18509;BME280;9383;50.928;12.116;2022-08-19T10:51:56;98491.28;;;19.45;100.00
18509;BME280;9383;50.928;12.116;2022-08-19T10:54:41;98465.75;;;19.17;100.00
18509;BME280;9383;50.928;12.116;2022-08-19T10:57:30;98439.22;;;19.01;100.00
18509;BME280;9383;50.928;12.116;2022-08-19T10:59:56;98523.41;;;19.47;100.00
18509;BME280;9383;50.928;12.116;2022-08-19T11:02:23;98508.16;;;19.36;100.00
18509;BME280;9383;50.928;12.116;2022-08-19T11:04:49;98434.16;;;18.84;100.00
18509;BME280;9383;50.928;12.116;2022-08-19T11:07:17;98525.63;;;19.42;100.00
18509;BME280;9383;50.928;12.116;2022-08-19T11:09:44;98495.16;;;19.18;100.00
18509;BME280;9383;50.928;12.116;2022-08-19T11:12:12;98448.47;;;18.96;100.00
18509;BME280;9383;50.928;12.116;2022-08-19T11:14:38;98461.53;;;19.01;100.00
18509;BME280;9383;50.928;12.116;2022-08-19T11:17:06;98522.81;;;19.43;100.00
18509;BME280;9383;50.928;12.116;2022-08-19T11:19:36;98496.88;;;19.19;100.00
18509;BME280;9383;50.928;12.116;2022-08-19T11:22:02;98498.81;;;19.17;100.00
18509;BME280;9383;50.928;12.116;2022-08-19T11:24:30;98511.56;;;19.26;100.00
18509;BME280;9383;50.928;12.116;2022-08-19T11:27:07;98462.13;;;18.93;100.00
18509;BME280;9383;50.928;12.116;2022-08-19T11:29:38;98430.47;;;18.74;100.00
18509;BME280;9383;50.928;12.116;2022-08-19T11:32:08;98517.66;;;19.29;100.00
18509;BME280;9383;50.928;12.116;2022-08-19T11:34:36;98518.38;;;19.31;100.00
18509;BME280;9383;50.928;12.116;2022-08-19T11:37:03;98426.69;;;18.77;100.00
18509;BME280;9383;50.928;12.116;2022-08-19T11:39:32;98510.94;;;19.34;100.00
18509;BME280;9383;50.928;12.116;2022-08-19T11:42:00;98447.59;;;18.96;100.00
18509;BME280;9383;50.928;12.116;2022-08-19T11:44:29;98503.00;;;19.44;100.00
18509;BME280;9383;50.928;12.116;2022-08-19T11:46:56;98505.47;;;19.47;100.00
18509;BME280;9383;50.928;12.116;2022-08-19T11:49:23;98455.00;;;19.17;100.00
18509;BME280;9383;50.928;12.116;2022-08-19T11:51:55;98404.50;;;18.97;100.00
18509;BME280;9383;50.928;12.116;2022-08-19T11:54:22;98406.72;;;19.04;100.00
18509;BME280;9383;50.928;12.116;2022-08-19T11:56:48;98416.50;;;19.16;100.00
18509;BME280;9383;50.928;12.116;2022-08-19T11:59:14;98490.44;;;19.67;100.00
18509;BME280;9383;50.928;12.116;2022-08-19T12:01:42;98448.03;;;19.48;100.00
18509;BME280;9383;50.928;12.116;2022-08-19T12:04:09;98440.81;;;19.49;100.00
18509;BME280;9383;50.928;12.116;2022-08-19T12:06:40;98463.41;;;19.69;100.00
18509;BME280;9383;50.928;12.116;2022-08-19T12:09:09;98481.25;;;19.81;100.00
18509;BME280;9383;50.928;12.116;2022-08-19T12:11:36;98491.38;;;19.89;100.00
18509;BME280;9383;50.928;12.116;2022-08-19T12:14:04;98485.66;;;19.94;100.00
18509;BME280;9383;50.928;12.116;2022-08-19T12:16:32;98488.84;;;19.99;100.00
18509;BME280;9383;50.928;12.116;2022-08-19T12:18:59;98485.78;;;20.04;100.00
18509;BME280;9383;50.928;12.116;2022-08-19T12:21:31;98490.53;;;20.12;100.00
18509;BME280;9383;50.928;12.116;2022-08-19T12:24:00;98489.03;;;20.19;100.00
18509;BME280;9383;50.928;12.116;2022-08-19T12:26:29;98461.03;;;20.10;100.00
18509;BME280;9383;50.928;12.116;2022-08-19T12:28:55;98416.69;;;19.81;100.00
18509;BME280;9383;50.928;12.116;2022-08-19T12:31:21;98484.97;;;20.24;99.47
18509;BME280;9383;50.928;12.116;2022-08-19T12:33:47;98396.44;;;19.66;99.75
18509;BME280;9383;50.928;12.116;2022-08-19T12:36:15;98433.19;;;19.77;100.00
18509;BME280;9383;50.928;12.116;2022-08-19T12:38:43;98489.56;;;20.13;99.70
18509;BME280;9383;50.928;12.116;2022-08-19T12:41:15;98393.28;;;19.61;100.00
18509;BME280;9383;50.928;12.116;2022-08-19T12:43:44;98489.28;;;20.16;100.00
18509;BME280;9383;50.928;12.116;2022-08-19T12:46:11;98405.72;;;19.73;100.00
18509;BME280;9383;50.928;12.116;2022-08-19T12:48:38;98462.16;;;19.96;100.00
18509;BME280;9383;50.928;12.116;2022-08-19T12:51:10;98501.50;;;20.20;100.00
18509;BME280;9383;50.928;12.116;2022-08-19T12:53:38;98496.25;;;20.18;100.00
18509;BME280;9383;50.928;12.116;2022-08-19T12:56:06;98428.31;;;19.82;100.00
18509;BME280;9383;50.928;12.116;2022-08-19T12:58:32;98479.75;;;20.23;99.79
18509;BME280;9383;50.928;12.116;2022-08-19T13:01:10;98509.03;;;20.49;99.84
18509;BME280;9383;50.928;12.116;2022-08-19T13:03:38;98513.44;;;20.50;99.62
18509;BME280;9383;50.928;12.116;2022-08-19T13:06:04;98444.03;;;20.09;99.43
18509;BME280;9383;50.928;12.116;2022-08-19T13:08:31;98517.03;;;20.60;99.35
18509;BME280;9383;50.928;12.116;2022-08-19T13:11:06;98521.19;;;20.64;99.16